Time;durP1;ratioP1;P1;durP2;ratioP2;P2;SDS_P1;SDS_P2;PMS_P1;PMS_P2;Temp;Humidity;BMP_temperature;BMP_pressure;BME280_temperature;BME280_humidity;BME280_pressure;Samples;Min_cycle;Max_cycle;Signal;HPM_P1;HPM_P2
2021/12/09 00:00:49;;;;;;;53.70;23.90;;;;;;;-4.29;81.36;97786.46;105865;1315;22688;-73
2021/12/09 00:03:16;;;;;;;40.10;18.20;;;;;;;-4.30;81.13;97784.63;105747;1317;22518;-73
2021/12/09 00:05:45;;;;;;;59.20;26.50;;;;;;;-4.31;81.43;97778.86;105820;1317;22626;-73
2021/12/09 00:08:13;;;;;;;66.10;28.50;;;;;;;-4.28;81.62;97774.70;105842;1317;27705;-71
2021/12/09 00:10:41;;;;;;;60.20;25.20;;;;;;;-4.24;81.62;97775.65;105855;1317;22771;-71
2021/12/09 00:13:08;;;;;;;73.50;33.20;;;;;;;-4.16;82.12;97778.55;105824;1317;22580;-71
2021/12/09 00:15:35;;;;;;;56.60;25.90;;;;;;;-4.17;81.88;97781.29;105839;1317;22605;-71
2021/12/09 00:18:02;;;;;;;47.90;21.10;;;;;;;-4.20;81.89;97779.48;105839;1314;26420;-71
2021/12/09 00:20:29;;;;;;;46.00;22.20;;;;;;;-4.22;81.66;97777.33;105845;1317;24408;-71
2021/12/09 00:22:56;;;;;;;44.70;21.10;;;;;;;-4.21;81.46;97776.63;105875;1317;23121;-71
2021/12/09 00:25:24;;;;;;;57.30;24.70;;;;;;;-4.22;81.29;97775.94;105831;1317;22773;-71
2021/12/09 00:27:52;;;;;;;41.50;20.10;;;;;;;-4.22;81.47;97774.44;105804;1316;22564;-71
2021/12/09 00:30:20;;;;;;;63.30;28.70;;;;;;;-4.19;81.24;97767.55;105878;1315;25271;-71
2021/12/09 00:32:48;;;;;;;45.50;18.40;;;;;;;-4.11;81.42;97762.13;105844;1316;22600;-71
2021/12/09 00:35:17;;;;;;;52.10;23.00;;;;;;;-4.07;81.27;97752.01;105876;1315;22639;-71
2021/12/09 00:38:03;;;;;;;39.80;19.00;;;;;;;-4.09;81.38;97743.90;105690;1320;22597;-72
2021/12/09 00:40:31;;;;;;;49.20;21.70;;;;;;;-4.11;81.66;97739.53;105850;1316;22564;-71
2021/12/09 00:42:58;;;;;;;36.90;16.90;;;;;;;-4.13;81.30;97737.35;105849;1316;25322;-71
2021/12/09 00:45:26;;;;;;;35.70;17.20;;;;;;;-4.17;81.14;97733.69;105838;1315;22712;-73
2021/12/09 00:47:54;;;;;;;40.20;16.20;;;;;;;-4.16;81.06;97733.49;105839;1317;22643;-71
2021/12/09 00:50:22;;;;;;;49.00;22.00;;;;;;;-4.11;81.19;97739.33;105811;1316;22578;-71
2021/12/09 00:52:50;;;;;;;47.10;21.80;;;;;;;-4.07;81.34;97740.12;105797;1316;24435;-71
2021/12/09 00:55:17;;;;;;;35.90;13.70;;;;;;;-4.07;81.73;97739.61;105833;1317;22536;-72
2021/12/09 00:57:46;;;;;;;35.40;15.00;;;;;;;-4.10;81.57;97741.17;105826;1317;22707;-71
2021/12/09 01:00:17;;;;;;;51.80;21.80;;;;;;;-4.09;81.35;97738.95;105814;1316;22663;-71
2021/12/09 01:02:44;;;;;;;45.00;17.60;;;;;;;-4.12;81.16;97728.85;105802;1316;23095;-71
2021/12/09 01:05:12;;;;;;;38.90;17.90;;;;;;;-4.13;81.11;97717.79;105788;1317;22703;-71
2021/12/09 01:07:40;;;;;;;43.80;19.50;;;;;;;-4.06;80.73;97709.46;105810;1317;24447;-71
2021/12/09 01:10:10;;;;;;;52.60;24.60;;;;;;;-4.04;81.18;97709.11;105822;1316;22608;-71
2021/12/09 01:12:37;;;;;;;37.30;17.30;;;;;;;-4.01;81.67;97701.20;105785;1316;22559;-70
2021/12/09 01:15:06;;;;;;;51.90;22.10;;;;;;;-3.99;81.32;97705.76;105847;1317;22640;-72
2021/12/09 01:17:34;;;;;;;48.60;23.20;;;;;;;-4.03;81.42;97716.23;105812;1317;22612;-72
2021/12/09 01:20:01;;;;;;;46.90;20.60;;;;;;;-3.99;81.27;97717.33;105838;1316;22593;-71
2021/12/09 01:22:36;;;;;;;46.30;21.80;;;;;;;-3.97;81.03;97712.85;105818;1316;22609;-71
2021/12/09 01:25:06;;;;;;;42.40;20.10;;;;;;;-3.98;80.95;97710.33;105810;1316;22659;-72
2021/12/09 01:27:36;;;;;;;44.70;20.60;;;;;;;-3.96;80.65;97706.02;105799;1317;22576;-72
2021/12/09 01:30:12;;;;;;;43.80;19.50;;;;;;;-3.91;80.94;97699.28;105833;1317;22580;-71
2021/12/09 01:32:48;;;;;;;47.40;21.10;;;;;;;-3.86;80.87;97700.69;105798;1316;22574;-71
2021/12/09 01:35:28;;;;;;;47.40;20.80;;;;;;;-3.86;80.90;97700.36;105783;1317;22693;-71
2021/12/09 01:37:59;;;;;;;42.00;17.80;;;;;;;-3.84;81.29;97703.36;105819;1317;22578;-71
2021/12/09 01:40:28;;;;;;;40.00;19.30;;;;;;;-3.83;81.15;97708.95;105870;1317;23401;-70
2021/12/09 01:42:57;;;;;;;31.40;14.20;;;;;;;-3.86;80.81;97711.42;105860;1316;22623;-71
2021/12/09 01:45:25;;;;;;;42.90;20.50;;;;;;;-3.84;80.92;97710.52;105827;1317;22634;-72
2021/12/09 01:47:53;;;;;;;40.30;17.60;;;;;;;-3.89;80.74;97712.16;105769;1314;22640;-73
2021/12/09 01:50:22;;;;;;;49.10;19.70;;;;;;;-3.87;80.58;97716.02;105964;1317;22597;-72
2021/12/09 01:52:50;;;;;;;31.10;15.50;;;;;;;-3.85;80.50;97719.05;105848;1317;22662;-72
2021/12/09 01:55:19;;;;;;;29.30;13.30;;;;;;;-3.82;80.45;97710.64;105822;1317;24447;-73
2021/12/09 01:57:49;;;;;;;43.00;20.90;;;;;;;-3.75;80.51;97710.31;105808;1317;24022;-73
2021/12/09 02:00:20;;;;;;;41.00;19.70;;;;;;;-3.74;80.83;97710.11;105837;1316;25415;-73
2021/12/09 02:02:47;;;;;;;35.60;15.60;;;;;;;-3.73;80.85;97708.55;105839;1317;22698;-72
2021/12/09 02:05:15;;;;;;;39.80;17.20;;;;;;;-3.74;81.23;97701.44;105776;1316;22593;-72
2021/12/09 02:07:42;;;;;;;39.60;18.30;;;;;;;-3.74;80.84;97705.68;105729;1317;25361;-73
2021/12/09 02:10:12;;;;;;;32.30;15.10;;;;;;;-3.76;80.60;97711.02;105726;1317;22618;-73
2021/12/09 02:12:39;;;;;;;35.00;15.40;;;;;;;-3.77;80.53;97702.38;105722;1317;24276;-71
2021/12/09 02:15:07;;;;;;;42.10;18.80;;;;;;;-3.75;80.46;97704.69;105756;1317;22703;-71
2021/12/09 02:17:34;;;;;;;44.80;18.60;;;;;;;-3.74;80.21;97700.94;105776;1317;24426;-71
2021/12/09 02:20:04;;;;;;;42.50;20.80;;;;;;;-3.72;80.60;97698.66;105567;1317;23388;-71
2021/12/09 02:22:32;;;;;;;38.90;14.50;;;;;;;-3.67;80.63;97693.64;105629;1317;22587;-71
2021/12/09 02:24:59;;;;;;;36.20;17.50;;;;;;;-3.63;80.51;97693.88;105737;1317;22597;-71
2021/12/09 02:27:26;;;;;;;35.50;17.30;;;;;;;-3.62;81.05;97702.02;105731;1316;23034;-71
2021/12/09 02:29:55;;;;;;;32.60;15.70;;;;;;;-3.63;80.84;97709.87;105754;1317;22588;-71
2021/12/09 02:32:23;;;;;;;40.30;20.00;;;;;;;-3.64;80.40;97714.31;105782;1317;22652;-71
2021/12/09 02:34:50;;;;;;;40.60;19.00;;;;;;;-3.64;80.47;97711.58;105661;1317;24307;-71
2021/12/09 02:37:17;;;;;;;39.20;15.30;;;;;;;-3.63;80.22;97710.20;105612;1320;22578;-72
2021/12/09 02:39:44;;;;;;;36.50;17.90;;;;;;;-3.63;80.11;97703.73;105734;1317;22636;-71
2021/12/09 02:42:12;;;;;;;36.70;17.10;;;;;;;-3.63;80.01;97705.77;105737;1316;22625;-71
2021/12/09 02:44:40;;;;;;;45.70;21.20;;;;;;;-3.64;79.80;97707.84;105738;1317;25469;-71
2021/12/09 02:47:07;;;;;;;43.30;20.80;;;;;;;-3.57;80.11;97714.64;105749;1317;24438;-71
2021/12/09 02:49:34;;;;;;;43.40;21.20;;;;;;;-3.50;80.45;97711.96;105748;1317;25319;-72
2021/12/09 02:52:04;;;;;;;35.60;16.90;;;;;;;-3.46;80.74;97705.70;105743;1316;22631;-72
2021/12/09 02:54:32;;;;;;;37.60;18.40;;;;;;;-3.47;80.69;97710.50;105779;1317;22593;-72
2021/12/09 02:57:03;;;;;;;35.80;16.20;;;;;;;-3.47;80.47;97708.11;105782;1317;23325;-72
2021/12/09 02:59:30;;;;;;;37.80;17.10;;;;;;;-3.48;80.18;97703.70;105775;1316;22710;-72
2021/12/09 03:01:58;;;;;;;34.50;16.30;;;;;;;-3.50;80.00;97704.63;105757;1317;22606;-72
2021/12/09 03:04:51;;;;;;;33.40;15.50;;;;;;;-3.50;79.89;97701.39;106328;1317;22614;-72
2021/12/09 03:07:29;;;;;;;41.60;19.50;;;;;;;-3.48;79.95;97699.29;105610;1317;25568;-72
2021/12/09 03:10:05;;;;;;;46.80;20.30;;;;;;;-3.44;80.16;97700.39;105745;1317;22550;-72
2021/12/09 03:12:35;;;;;;;37.80;18.40;;;;;;;-3.40;80.31;97704.54;105619;1317;22585;-72
2021/12/09 03:15:04;;;;;;;39.40;17.70;;;;;;;-3.36;80.75;97710.23;105769;1317;24496;-72
2021/12/09 03:17:32;;;;;;;45.10;18.70;;;;;;;-3.38;80.43;97714.36;105760;1317;24342;-72
2021/12/09 03:20:00;;;;;;;37.90;17.90;;;;;;;-3.38;80.28;97718.45;105797;1316;22585;-72
2021/12/09 03:22:27;;;;;;;36.20;15.90;;;;;;;-3.40;80.02;97716.11;105755;1317;22573;-72
2021/12/09 03:24:54;;;;;;;47.90;20.90;;;;;;;-3.40;79.68;97717.65;105758;1317;25311;-72
2021/12/09 03:27:21;;;;;;;48.00;19.70;;;;;;;-3.42;79.75;97715.83;105750;1317;22639;-72
2021/12/09 03:29:48;;;;;;;27.30;12.30;;;;;;;-3.42;79.68;97711.05;105781;1317;25122;-72
2021/12/09 03:32:17;;;;;;;43.10;18.60;;;;;;;-3.40;79.52;97705.05;105763;1317;22691;-72
2021/12/09 03:34:45;;;;;;;45.20;19.80;;;;;;;-3.34;79.57;97703.56;105930;1314;22604;-72
2021/12/09 03:37:22;;;;;;;47.00;20.90;;;;;;;-3.32;79.80;97703.67;105672;1317;22607;-72
2021/12/09 03:39:51;;;;;;;42.80;18.90;;;;;;;-3.26;80.21;97698.59;105755;1317;22641;-73
2021/12/09 03:42:21;;;;;;;35.50;15.90;;;;;;;-3.28;79.83;97700.17;105778;1317;22575;-72
2021/12/09 03:44:50;;;;;;;45.90;20.00;;;;;;;-3.30;79.79;97706.36;105775;1317;22598;-72
2021/12/09 03:47:19;;;;;;;34.20;15.20;;;;;;;-3.31;79.50;97700.77;105784;1315;22573;-72
2021/12/09 03:49:46;;;;;;;27.70;13.50;;;;;;;-3.32;79.45;97700.45;105753;1316;22559;-72
2021/12/09 03:52:14;;;;;;;42.40;19.50;;;;;;;-3.34;79.45;97705.26;105789;1316;22579;-72
2021/12/09 03:54:43;;;;;;;29.40;13.20;;;;;;;-3.34;79.54;97703.74;105841;1317;25367;-72
2021/12/09 03:57:12;;;;;;;46.30;20.70;;;;;;;-3.32;79.17;97697.88;105804;1317;22667;-72
2021/12/09 03:59:41;;;;;;;44.10;20.40;;;;;;;-3.28;79.42;97699.83;105740;1317;23055;-72
2021/12/09 04:02:09;;;;;;;43.90;19.20;;;;;;;-3.22;79.81;97706.97;105706;1316;22556;-72
2021/12/09 04:04:36;;;;;;;38.20;18.10;;;;;;;-3.20;80.07;97708.82;105796;1316;22982;-72
2021/12/09 04:07:04;;;;;;;37.90;17.70;;;;;;;-3.18;79.92;97710.46;105760;1317;22556;-72
2021/12/09 04:09:32;;;;;;;43.90;19.90;;;;;;;-3.21;79.56;97708.66;105801;1316;22684;-72
2021/12/09 04:11:59;;;;;;;40.70;17.00;;;;;;;-3.25;79.43;97712.34;105769;1314;22603;-72
2021/12/09 04:14:26;;;;;;;43.90;18.10;;;;;;;-3.24;79.29;97712.67;105777;1317;22584;-73
2021/12/09 04:16:53;;;;;;;48.40;20.70;;;;;;;-3.19;79.30;97706.08;105756;1317;22593;-73
2021/12/09 04:19:21;;;;;;;51.50;22.00;;;;;;;-3.18;79.46;97703.66;105775;1316;22601;-73
2021/12/09 04:21:48;;;;;;;50.30;19.40;;;;;;;-3.18;79.57;97705.52;105766;1316;24758;-73
2021/12/09 04:24:16;;;;;;;40.80;17.60;;;;;;;-3.16;79.80;97702.42;105744;1316;22582;-74
2021/12/09 04:26:47;;;;;;;39.40;17.90;;;;;;;-3.18;79.50;97705.54;105683;1318;23972;-73
2021/12/09 04:29:14;;;;;;;38.80;16.60;;;;;;;-3.17;79.20;97701.77;105768;1317;22614;-73
2021/12/09 04:31:42;;;;;;;48.40;21.20;;;;;;;-3.20;79.24;97699.60;105787;1316;22559;-73
2021/12/09 04:34:10;;;;;;;43.70;19.70;;;;;;;-3.20;79.24;97703.52;105814;1317;22603;-72
2021/12/09 04:36:40;;;;;;;54.90;22.10;;;;;;;-3.16;79.27;97700.71;105855;1316;26685;-72
2021/12/09 04:39:08;;;;;;;43.40;19.80;;;;;;;-3.11;79.52;97700.23;105793;1316;22677;-72
2021/12/09 04:41:35;;;;;;;47.10;20.70;;;;;;;-3.09;79.75;97710.58;105757;1315;22719;-72
2021/12/09 04:44:04;;;;;;;55.00;20.60;;;;;;;-3.12;79.59;97712.18;105775;1317;22683;-72
2021/12/09 04:46:31;;;;;;;48.00;19.50;;;;;;;-3.11;79.29;97712.16;105787;1317;22579;-72
2021/12/09 04:48:59;;;;;;;33.60;15.20;;;;;;;-3.14;79.25;97705.98;105793;1315;22591;-72
2021/12/09 04:51:26;;;;;;;44.20;19.60;;;;;;;-3.17;79.11;97695.61;105750;1316;22915;-72
2021/12/09 04:53:53;;;;;;;43.60;19.50;;;;;;;-3.16;79.21;97691.86;105806;1316;25351;-72
2021/12/09 04:56:20;;;;;;;57.90;23.40;;;;;;;-3.13;79.16;97696.21;105840;1314;22583;-72
2021/12/09 04:58:49;;;;;;;55.00;22.50;;;;;;;-3.08;79.44;97705.45;105834;1317;22579;-72
2021/12/09 05:01:18;;;;;;;55.40;22.30;;;;;;;-3.01;80.04;97706.64;105830;1316;23045;-72
2021/12/09 05:03:47;;;;;;;52.60;21.90;;;;;;;-3.01;80.00;97713.10;106044;1316;22716;-72
2021/12/09 05:06:16;;;;;;;57.30;25.70;;;;;;;-3.00;79.96;97712.75;106083;1314;22579;-72
2021/12/09 05:08:48;;;;;;;48.00;22.10;;;;;;;-3.00;79.51;97707.97;106013;1316;23133;-73
2021/12/09 05:13:58;;;;;;;40.40;17.20;;;;;;;-3.05;78.99;97704.16;106046;1316;22572;-72
2021/12/09 05:16:25;;;;;;;51.50;20.80;;;;;;;-3.06;79.02;97686.32;106079;1316;22586;-72
2021/12/09 05:18:58;;;;;;;49.20;20.20;;;;;;;-3.04;79.37;97681.33;106060;1317;22579;-72
2021/12/09 05:21:29;;;;;;;55.10;23.20;;;;;;;-3.01;79.77;97681.42;106076;1316;22575;-72
2021/12/09 05:23:59;;;;;;;42.70;18.90;;;;;;;-3.00;79.65;97675.61;106040;1317;22573;-72
2021/12/09 05:26:31;;;;;;;77.50;26.40;;;;;;;-3.05;79.94;97682.88;106022;1317;22580;-72
2021/12/09 05:28:59;;;;;;;62.20;24.20;;;;;;;-3.07;79.65;97695.02;106033;1317;22579;-72
2021/12/09 05:34:14;;;;;;;72.40;31.30;;;;;;;-3.07;79.28;97694.02;106043;1317;23451;-72
2021/12/09 05:36:42;;;;;;;63.20;26.50;;;;;;;-3.07;79.09;97690.11;105904;1317;22605;-72
2021/12/09 05:39:14;;;;;;;85.30;37.00;;;;;;;-3.04;79.24;97689.65;105925;1316;22649;-72
2021/12/09 05:41:42;;;;;;;86.20;31.40;;;;;;;-3.01;79.41;97689.41;106033;1317;22577;-73
2021/12/09 05:44:10;;;;;;;50.10;21.70;;;;;;;-2.99;79.62;97688.36;105921;1317;22645;-73
2021/12/09 05:46:40;;;;;;;54.20;22.80;;;;;;;-3.01;79.42;97682.77;106007;1317;22605;-72
2021/12/09 05:49:07;;;;;;;58.60;25.70;;;;;;;-3.04;79.39;97685.23;105856;1317;23136;-74
2021/12/09 05:51:34;;;;;;;65.70;26.60;;;;;;;-3.06;79.49;97700.30;105805;1316;22622;-71
2021/12/09 05:54:02;;;;;;;59.80;26.30;;;;;;;-3.09;79.53;97700.36;105758;1317;22647;-71
2021/12/09 05:56:29;;;;;;;71.00;28.70;;;;;;;-3.09;79.40;97698.81;105653;1317;22593;-72
2021/12/09 05:58:57;;;;;;;71.60;29.90;;;;;;;-3.01;79.64;97702.89;105777;1314;22577;-72
2021/12/09 06:01:24;;;;;;;59.20;25.00;;;;;;;-2.96;79.99;97704.11;105759;1315;22581;-73
2021/12/09 06:03:51;;;;;;;65.60;26.80;;;;;;;-2.90;80.07;97708.91;105757;1317;22617;-73
2021/12/09 06:06:19;;;;;;;69.20;29.50;;;;;;;-2.94;79.95;97720.77;105759;1316;22572;-73
2021/12/09 06:08:46;;;;;;;65.70;27.90;;;;;;;-2.94;79.43;97731.99;106056;1313;22581;-73
2021/12/09 06:11:13;;;;;;;67.40;25.00;;;;;;;-2.96;79.44;97737.36;105666;1317;22728;-73
2021/12/09 06:13:41;;;;;;;67.70;25.10;;;;;;;-2.96;79.40;97731.39;105775;1316;22583;-73
2021/12/09 06:16:09;;;;;;;73.50;30.40;;;;;;;-2.91;79.47;97729.39;105776;1317;25278;-73
2021/12/09 06:18:36;;;;;;;81.90;33.70;;;;;;;-2.86;79.94;97732.81;105749;1317;22706;-73
2021/12/09 06:21:04;;;;;;;74.70;28.80;;;;;;;-2.83;80.19;97734.60;105803;1317;22713;-73
2021/12/09 06:23:31;;;;;;;101.80;35.40;;;;;;;-2.84;80.14;97734.62;105754;1317;22582;-73
2021/12/09 06:25:58;;;;;;;65.10;26.50;;;;;;;-2.83;79.79;97733.77;105559;1317;22559;-73
2021/12/09 06:28:26;;;;;;;76.60;31.10;;;;;;;-2.84;79.44;97744.00;105778;1317;22590;-72
2021/12/09 06:30:53;;;;;;;73.20;28.70;;;;;;;-2.84;79.27;97745.39;105855;1317;22691;-73
2021/12/09 06:33:20;;;;;;;115.50;43.00;;;;;;;-2.85;79.14;97736.88;105814;1317;23174;-74
2021/12/09 06:35:47;;;;;;;97.90;35.40;;;;;;;-2.84;78.95;97735.16;105825;1317;25280;-73
2021/12/09 06:38:16;;;;;;;146.40;60.50;;;;;;;-2.82;79.13;97725.54;105827;1314;22618;-74
2021/12/09 06:40:46;;;;;;;80.70;33.80;;;;;;;-2.75;79.36;97730.83;105624;1318;22707;-74
2021/12/09 06:43:13;;;;;;;87.10;30.40;;;;;;;-2.71;79.93;97738.90;105636;1317;23386;-74
2021/12/09 06:45:41;;;;;;;93.70;35.80;;;;;;;-2.71;79.86;97735.84;105626;1317;22604;-74
2021/12/09 06:48:08;;;;;;;99.10;37.50;;;;;;;-2.72;79.70;97737.23;105597;1319;22563;-73
2021/12/09 06:50:37;;;;;;;94.80;35.30;;;;;;;-2.71;79.27;97738.55;105804;1319;24028;-73
2021/12/09 06:53:04;;;;;;;92.30;35.40;;;;;;;-2.71;79.15;97747.27;105653;1317;22559;-74
2021/12/09 06:55:31;;;;;;;83.40;34.40;;;;;;;-2.72;79.06;97756.13;105694;1318;22652;-73
2021/12/09 06:57:58;;;;;;;108.50;40.10;;;;;;;-2.70;79.07;97760.02;105649;1318;22581;-74
2021/12/09 07:00:30;;;;;;;120.10;43.80;;;;;;;-2.69;79.03;97772.59;105646;1318;24211;-74
2021/12/09 07:02:57;;;;;;;124.30;44.00;;;;;;;-2.66;78.97;97771.83;105510;1311;200697;-74
2021/12/09 07:05:27;;;;;;;89.60;34.90;;;;;;;-2.58;79.09;97763.08;105644;1319;22710;-73
2021/12/09 07:07:54;;;;;;;86.90;33.50;;;;;;;-2.50;79.39;97764.76;105627;1317;24250;-73
2021/12/09 07:10:22;;;;;;;74.00;31.20;;;;;;;-2.45;79.66;97761.39;105770;1317;23106;-73
2021/12/09 07:12:50;;;;;;;93.30;39.50;;;;;;;-2.43;79.76;97757.44;105808;1314;22586;-73
2021/12/09 07:15:17;;;;;;;121.30;46.90;;;;;;;-2.43;79.43;97751.28;105757;1317;22600;-73
2021/12/09 07:17:45;;;;;;;107.80;41.00;;;;;;;-2.41;79.15;97763.14;105735;1317;22577;-74
2021/12/09 07:20:16;;;;;;;125.00;51.90;;;;;;;-2.40;79.18;97778.30;105758;1317;22579;-75
2021/12/09 07:22:45;;;;;;;121.70;49.20;;;;;;;-2.38;79.08;97780.79;105739;1317;22710;-73
2021/12/09 07:25:12;;;;;;;99.50;42.40;;;;;;;-2.35;78.90;97781.59;105733;1317;22839;-74
2021/12/09 07:27:39;;;;;;;86.70;37.40;;;;;;;-2.34;78.44;97767.23;105776;1314;24238;-74
2021/12/09 07:30:10;;;;;;;98.30;38.30;;;;;;;-2.36;78.30;97761.81;105788;1317;22717;-74
2021/12/09 07:32:37;;;;;;;96.60;39.10;;;;;;;-2.32;78.50;97762.39;105773;1317;22584;-73
2021/12/09 07:35:06;;;;;;;133.80;50.00;;;;;;;-2.27;78.74;97756.29;105780;1316;22660;-73
2021/12/09 07:37:36;;;;;;;146.10;54.00;;;;;;;-2.22;79.24;97758.88;105655;1310;22986;-73
2021/12/09 07:40:11;;;;;;;132.00;49.20;;;;;;;-2.21;79.20;97768.57;105577;1319;22589;-73
2021/12/09 07:42:38;;;;;;;106.30;38.90;;;;;;;-2.20;79.15;97782.52;105720;1314;22575;-74
2021/12/09 07:45:07;;;;;;;103.60;38.90;;;;;;;-2.20;78.97;97789.16;105743;1317;22582;-75
2021/12/09 07:47:34;;;;;;;106.50;37.50;;;;;;;-2.18;78.57;97785.39;105756;1315;22624;-74
2021/12/09 07:50:02;;;;;;;72.90;33.00;;;;;;;-2.18;78.47;97785.20;105767;1316;22593;-73
2021/12/09 07:52:29;;;;;;;104.30;43.70;;;;;;;-2.17;78.03;97775.97;105773;1317;22656;-72
2021/12/09 07:54:56;;;;;;;100.80;45.10;;;;;;;-2.18;77.97;97762.51;105802;1317;24273;-73
2021/12/09 07:57:23;;;;;;;99.20;42.30;;;;;;;-2.20;78.03;97775.52;105810;1316;24096;-73
2021/12/09 07:59:50;;;;;;;137.90;51.70;;;;;;;-2.20;77.97;97776.89;105752;1317;22581;-71
2021/12/09 08:02:17;;;;;;;189.40;71.60;;;;;;;-2.14;77.88;97772.14;105761;1317;24418;-72
2021/12/09 08:04:44;;;;;;;83.20;36.20;;;;;;;-2.12;78.39;97765.74;105777;1316;22723;-74
2021/12/09 08:07:11;;;;;;;133.70;47.20;;;;;;;-2.11;78.73;97774.93;105739;1316;22709;-73
2021/12/09 08:09:38;;;;;;;109.40;42.20;;;;;;;-2.13;78.68;97782.15;106136;1317;22638;-72
2021/12/09 08:12:06;;;;;;;111.60;49.10;;;;;;;-2.14;78.63;97788.83;105805;1317;22603;-72
2021/12/09 08:14:33;;;;;;;103.00;44.50;;;;;;;-2.14;78.53;97791.38;105873;1316;22574;-73
2021/12/09 08:17:33;;;;;;;208.20;88.80;;;;;;;-2.11;78.49;97797.29;105762;1314;22604;-72
2021/12/09 08:20:00;;;;;;;266.40;113.80;;;;;;;-2.09;78.35;97813.96;105775;1317;22696;-73
2021/12/09 08:22:27;;;;;;;142.10;62.00;;;;;;;-2.06;78.29;97810.61;105800;1314;25366;-75
2021/12/09 08:24:55;;;;;;;454.70;175.80;;;;;;;-2.01;78.12;97803.15;105731;1310;22576;-72
2021/12/09 08:27:23;;;;;;;154.30;61.50;;;;;;;-1.90;78.06;97792.77;105762;1316;25361;-73
2021/12/09 08:29:50;;;;;;;176.10;83.80;;;;;;;-1.81;78.33;97782.95;105769;1314;22576;-72
2021/12/09 08:32:17;;;;;;;182.80;95.50;;;;;;;-1.79;78.58;97779.81;105829;1316;22645;-72
2021/12/09 08:34:44;;;;;;;125.60;67.20;;;;;;;-1.79;78.39;97772.46;105765;1315;22700;-75
2021/12/09 08:37:12;;;;;;;142.00;72.90;;;;;;;-1.79;78.13;97769.23;105654;1317;22694;-73
2021/12/09 08:39:39;;;;;;;93.60;45.10;;;;;;;-1.78;77.80;97768.00;105825;1318;22574;-74
2021/12/09 08:42:06;;;;;;;92.10;41.20;;;;;;;-1.77;77.60;97772.06;105732;1319;22634;-74
2021/12/09 08:44:33;;;;;;;83.10;40.70;;;;;;;-1.77;77.62;97776.85;105737;1317;22616;-73
2021/12/09 08:47:00;;;;;;;102.70;45.40;;;;;;;-1.77;77.57;97778.05;105772;1315;22682;-72
2021/12/09 08:49:28;;;;;;;117.50;47.30;;;;;;;-1.75;77.28;97776.80;105749;1317;25399;-72
2021/12/09 08:51:55;;;;;;;121.00;52.00;;;;;;;-1.76;77.12;97778.17;105771;1317;22563;-73
2021/12/09 08:54:22;;;;;;;148.50;59.40;;;;;;;-1.70;77.43;97774.23;105765;1316;22643;-72
2021/12/09 08:56:51;;;;;;;107.60;45.70;;;;;;;-1.66;77.53;97781.46;105799;1316;22587;-73
2021/12/09 08:59:21;;;;;;;114.10;49.00;;;;;;;-1.59;78.17;97782.95;105773;1317;22555;-78
2021/12/09 09:01:49;;;;;;;109.60;48.30;;;;;;;-1.60;78.08;97775.47;105788;1316;22571;-74
2021/12/09 09:04:15;;;;;;;112.40;48.50;;;;;;;-1.58;77.89;97768.24;105831;1317;22581;-74
2021/12/09 09:06:55;;;;;;;110.00;44.10;;;;;;;-1.54;77.39;97767.09;105942;1316;22587;-75
2021/12/09 09:09:24;;;;;;;81.90;35.80;;;;;;;-1.51;77.10;97760.34;105991;1316;24200;-74
2021/12/09 09:11:52;;;;;;;84.90;38.80;;;;;;;-1.52;76.74;97749.27;105869;1317;22607;-73
2021/12/09 09:14:20;;;;;;;85.80;35.20;;;;;;;-1.54;76.80;97749.87;105922;1316;22716;-74
2021/12/09 09:16:49;;;;;;;81.90;35.60;;;;;;;-1.53;76.70;97753.77;105981;1317;22694;-73
2021/12/09 09:19:16;;;;;;;65.40;30.40;;;;;;;-1.46;76.88;97761.41;105952;1315;22645;-73
2021/12/09 09:21:43;;;;;;;65.10;28.90;;;;;;;-1.43;77.13;97758.73;105960;1316;22635;-74
2021/12/09 09:24:10;;;;;;;68.00;28.60;;;;;;;-1.40;77.41;97751.48;105948;1317;22582;-75
2021/12/09 09:26:38;;;;;;;81.10;35.10;;;;;;;-1.41;77.26;97752.19;106019;1317;22646;-78
2021/12/09 09:29:06;;;;;;;80.70;38.20;;;;;;;-1.42;76.89;97752.90;106059;1316;22575;-75
2021/12/09 09:31:33;;;;;;;67.30;30.40;;;;;;;-1.38;76.55;97742.88;106115;1317;22579;-75
2021/12/09 09:34:04;;;;;;;61.60;26.00;;;;;;;-1.40;76.36;97741.91;106039;1317;22563;-74
2021/12/09 09:36:32;;;;;;;61.60;29.60;;;;;;;-1.40;76.28;97737.46;106021;1316;22710;-78
2021/12/09 09:39:06;;;;;;;60.40;28.40;;;;;;;-1.39;76.18;97728.23;106068;1316;22565;-75
2021/12/09 09:41:34;;;;;;;75.00;30.00;;;;;;;-1.41;76.12;97718.37;105882;1317;24304;-75
2021/12/09 09:44:14;;;;;;;85.60;35.70;;;;;;;-1.42;76.14;97720.80;105982;1318;25402;-74
2021/12/09 09:46:42;;;;;;;93.60;41.90;;;;;;;-1.34;76.56;97723.96;105616;1319;22724;-74
2021/12/09 09:49:11;;;;;;;67.10;29.10;;;;;;;-1.26;76.84;97725.06;105791;1314;22811;-71
2021/12/09 09:51:38;;;;;;;88.10;35.40;;;;;;;-1.26;76.95;97727.11;105751;1316;22555;-73
2021/12/09 09:54:09;;;;;;;106.90;39.00;;;;;;;-1.26;76.90;97725.43;105787;1316;22653;-79
2021/12/09 09:56:41;;;;;;;90.30;34.20;;;;;;;-1.26;76.44;97720.29;105796;1316;22581;-76
2021/12/09 09:59:12;;;;;;;72.70;31.10;;;;;;;-1.24;76.39;97719.70;105777;1317;23039;-75
2021/12/09 10:01:40;;;;;;;90.60;37.40;;;;;;;-1.24;76.36;97716.77;105759;1317;22649;-75
2021/12/09 10:04:14;;;;;;;52.40;23.30;;;;;;;-1.19;76.19;97711.32;105734;1316;22578;-74
2021/12/09 10:06:43;;;;;;;62.00;25.70;;;;;;;-1.10;75.81;97700.45;105786;1316;22722;-75
2021/12/09 10:09:13;;;;;;;103.70;45.80;;;;;;;-1.12;75.85;97695.22;105761;1317;22571;-74
2021/12/09 10:11:41;;;;;;;80.80;34.60;;;;;;;-1.13;76.54;97693.73;105750;1315;22639;-74
2021/12/09 10:14:12;;;;;;;61.10;27.70;;;;;;;-1.08;75.84;97699.71;105743;1317;22609;-75
2021/12/09 10:16:42;;;;;;;82.30;35.60;;;;;;;-1.17;75.34;97701.03;105825;1314;22657;-77
2021/12/09 10:19:19;;;;;;;87.20;37.70;;;;;;;-1.24;75.30;97702.96;105976;1317;25376;-75
2021/12/09 10:21:47;;;;;;;69.80;34.60;;;;;;;-1.29;75.20;97700.07;106017;1316;22578;-74
2021/12/09 10:24:16;;;;;;;110.10;42.50;;;;;;;-1.29;75.04;97699.20;106064;1317;22645;-74
2021/12/09 10:26:47;;;;;;;74.30;30.60;;;;;;;-1.32;75.06;97697.22;106059;1316;22594;-74
2021/12/09 10:29:27;;;;;;;78.40;31.90;;;;;;;-1.30;74.84;97698.38;106081;1317;22668;-74
2021/12/09 10:31:59;;;;;;;85.20;37.10;;;;;;;-1.30;75.51;97691.88;106048;1317;22582;-75
2021/12/09 10:34:48;;;;;;;59.50;26.10;;;;;;;-1.25;76.00;97689.65;105904;1317;22706;-75
2021/12/09 10:37:22;;;;;;;86.30;37.60;;;;;;;-1.23;75.83;97699.66;106067;1317;22585;-74
2021/12/09 10:39:55;;;;;;;92.20;39.10;;;;;;;-1.20;75.66;97712.04;106015;1316;22590;-74
2021/12/09 10:42:31;;;;;;;92.00;35.00;;;;;;;-1.17;75.33;97703.22;106170;1314;22593;-77
2021/12/09 10:45:05;;;;;;;52.90;24.00;;;;;;;-1.14;74.96;97690.67;106119;1315;22624;-75
2021/12/09 10:47:49;;;;;;;52.80;24.60;;;;;;;-1.14;74.86;97676.81;106064;1316;22590;-76
2021/12/09 10:50:45;;;;;;;51.20;22.70;;;;;;;-1.13;74.82;97678.31;105850;1316;22581;-75
2021/12/09 10:55:55;;;;;;;74.30;33.60;;;;;;;-1.06;75.28;97669.02;105919;1316;23394;-75
2021/12/09 10:58:25;;;;;;;74.70;36.40;;;;;;;-1.02;75.89;97665.67;105950;1316;22605;-75
2021/12/09 11:01:04;;;;;;;61.40;26.70;;;;;;;-0.97;75.92;97666.52;105979;1317;22588;-75
2021/12/09 11:03:43;;;;;;;59.90;27.10;;;;;;;-0.94;75.62;97672.39;106030;1317;22579;-75
2021/12/09 11:06:16;;;;;;;82.10;34.80;;;;;;;-0.91;75.25;97674.33;106052;1314;22590;-75
2021/12/09 11:08:53;;;;;;;53.10;25.90;;;;;;;-0.94;75.07;97668.46;106024;1316;22661;-76
2021/12/09 11:11:31;;;;;;;64.80;32.70;;;;;;;-1.00;75.01;97657.03;106045;1316;22628;-75
2021/12/09 11:14:17;;;;;;;69.80;32.30;;;;;;;-1.00;74.86;97652.27;106055;1316;22654;-76
2021/12/09 11:16:56;;;;;;;105.70;51.50;;;;;;;-1.05;74.75;97649.20;106052;1317;22581;-75
2021/12/09 11:19:35;;;;;;;104.00;42.40;;;;;;;-1.08;74.84;97654.44;106049;1314;22588;-75
2021/12/09 11:22:12;;;;;;;99.50;43.00;;;;;;;-1.02;75.20;97646.71;106062;1315;22597;-75
2021/12/09 11:24:45;;;;;;;86.70;37.00;;;;;;;-1.00;75.85;97656.20;106034;1315;22664;-76